avis per tempestes more information blitzortung!


avis per Pluja more information rain snow radar


Visita la nostra xarxa de llocs de meteo:

Template documentation
and downloads

And another site



Thunderstorms From: 18-09-2018 20:00 Until: 19-09-2018 10:59 warning for: Thunderstorms Level: Yellow info button
Rain From: 18-09-2018 20:00 Until: 19-09-2018 10:59 warning for: Rain Level: Yellow info button

Pagina Historial Weather Underground text

Diari Resum Juliol 8, 2017 Unitats:  Imperial    Mètric   Tant
« Previous Dia
SegĂźent Dia »
Diari Setmana Mensual Anual Personalitzada
  Maxima: Minima: Media:
Temperatura: TemperatureC °F 20.3 °F 24.8 °F
Punt de rosada: DewpointC °F 8.2 °F 15.9 °F
Humitat: Humidity % 33 % 58 %
Wind Speed: WindSpeedKMH mph 0.0 mph 9.5 mph
RĂ fegues de vent: WindSpeedGustKMH mph - -
Vent:- - SE
Pression baro: PressurehPa in 1009.0 in -
Precipitacions: 1.0 in    
Historical Graphs
 
 
Dades de taula per Juliol 8, 2017
Temps Temperatura Punt de rosada Pression baro Vent Wind Speed RĂ fegues de vent Humitat Rainfall Rate (Hourly)
TemperatureC °F DewpointC °F PressurehPa in Calm     Humidity % HourlyPrecipMM in
00:00 25.2 °F 11.4 °F 1013.8 in East 3.7 mph 3.7 mph 42 % 0.0 in
10:38 24.3 °F 9.1 °F 1013.8 in SE 1.9 mph   38 % 0.0 in
10:43 24.3 °F 9.1 °F 1013.8 in SE 3.7 mph   38 % 0.0 in
10:48 24.3 °F 9.1 °F 1013.8 in SE 3.7 mph   38 % 0.0 in
10:53 25.1 °F 8.6 °F 1011.7 in ENE 5.6 mph 5.6 mph 35 % 0.0 in
10:58 25.4 °F 8.4 °F 1011.7 in NNW 3.7 mph 3.7 mph 34 % 0.0 in
10:59 25.4 °F 8.4 °F 1011.7 in NNW 3.7 mph 3.7 mph 34 % 0.0 in
11:04 25.7 °F 8.2 °F 1011.7 in NE 10.0 mph 10.0 mph 33 % 0.0 in
11:09 25.1 °F 9.0 °F 1011.7 in NNE 7.4 mph 7.4 mph 36 % 0.0 in
11:14 24.0 °F 9.6 °F 1011.7 in ENE 5.6 mph 5.6 mph 40 % 0.0 in
11:19 23.8 °F 9.8 °F 1011.7 in NNE 9.3 mph 9.3 mph 41 % 0.0 in
11:24 24.4 °F 9.9 °F 1011.7 in ENE 11.1 mph 11.1 mph 40 % 0.0 in
11:29 25.1 °F 9.8 °F 1011.7 in ESE 7.4 mph 7.4 mph 38 % 0.0 in
11:34 25.1 °F 10.2 °F 1011.7 in East 3.7 mph 3.7 mph 39 % 0.0 in
11:39 25.9 °F 10.1 °F 1011.7 in East 3.7 mph 3.7 mph 37 % 0.0 in
11:44 25.6 °F 11.4 °F 1011.7 in SW 5.8 mph 5.8 mph 41 % 0.0 in
11:49 24.6 °F 11.2 °F 1011.7 in West 3.7 mph 3.9 mph 43 % 0.0 in
11:54 24.8 °F 10.7 °F 1011.7 in WNW 2.3 mph 2.3 mph 41 % 0.0 in
11:59 25.3 °F 10.3 °F 1011.7 in West 2.6 mph   39 % 0.0 in
12:04 25.5 °F 11.3 °F 1011.7 in West 1.9 mph   41 % 0.0 in
12:09 25.7 °F 11.1 °F 1010.7 in WSW 3.9 mph 3.9 mph 40 % 0.0 in
12:14 25.9 °F 10.9 °F 1010.7 in SW 3.7 mph 3.7 mph 39 % 0.0 in
12:19 26.3 °F 11.2 °F 1010.7 in West 5.6 mph 5.6 mph 39 % 0.0 in
12:24 26.2 °F 11.2 °F 1011.7 in WSW 1.9 mph 2.3 mph 39 % 0.0 in
12:29 26.2 °F 11.2 °F 1011.7 in WSW 5.0 mph 5.0 mph 39 % 0.0 in
12:34 26.2 °F 11.2 °F 1011.7 in SW 11.9 mph 11.9 mph 39 % 0.0 in
12:39 26.3 °F 11.2 °F 1011.7 in SW 11.1 mph 11.1 mph 39 % 0.0 in
12:44 25.9 °F 11.3 °F 1012.8 in South 11.1 mph 11.1 mph 40 % 0.0 in
12:49 26.2 °F 10.8 °F 1012.8 in ESE 13.0 mph 13.0 mph 38 % 0.0 in
12:54 25.6 °F 11.0 °F 1011.7 in NNW 7.4 mph 7.4 mph 40 % 0.0 in
12:59 25.1 °F 10.9 °F 1011.7 in SSW 7.4 mph 7.4 mph 41 % 0.0 in
13:04 23.9 °F 10.9 °F 1011.7 in WSW 7.4 mph 7.4 mph 44 % 1.0 in
13:09 23.5 °F 11.2 °F 1012.8 in SSE 3.7 mph 3.7 mph 46 % 1.0 in
13:14 23.4 °F 12.1 °F 1012.8 in South 3.7 mph 3.7 mph 49 % 1.0 in
13:19 23.6 °F 12.6 °F 1012.8 in SSE 3.2 mph 3.2 mph 50 % 1.0 in
13:24 23.9 °F 13.4 °F 1012.8 in South 3.7 mph 3.7 mph 52 % 1.0 in
13:29 24.1 °F 13.9 °F 1012.8 in ESE 5.6 mph 5.6 mph 53 % 1.0 in
13:34 24.3 °F 14.1 °F 1012.8 in ESE 5.6 mph 5.6 mph 53 % 1.0 in
13:39 24.6 °F 14.7 °F 1012.8 in ESE 10.0 mph 10.0 mph 54 % 1.0 in
13:44 24.7 °F 15.1 °F 1012.8 in ESE 11.1 mph 11.1 mph 55 % 1.0 in
13:49 24.9 °F 15.2 °F 1012.8 in East 13.0 mph 13.0 mph 55 % 1.0 in
13:54 25.0 °F 15.1 °F 1013.8 in ESE 16.7 mph 16.7 mph 54 % 1.0 in
13:59 25.1 °F 14.8 °F 1013.8 in NNE 16.7 mph 16.7 mph 53 % 1.0 in
14:04 25.2 °F 14.9 °F 1013.8 in SE 13.0 mph 13.0 mph 53 % 0.0 in
14:09 25.3 °F 15.1 °F 1013.8 in East 13.0 mph 13.0 mph 53 % 0.0 in
14:14 25.5 °F 15.2 °F 1013.8 in East 18.5 mph 18.5 mph 53 % 0.0 in
14:19 25.6 °F 15.3 °F 1013.8 in SSE 18.5 mph 18.5 mph 53 % 0.0 in
14:24 25.6 °F 15.3 °F 1012.8 in NE 24.1 mph 24.1 mph 53 % 0.0 in
14:29 25.5 °F 15.8 °F 1012.8 in ESE 14.8 mph 14.8 mph 55 % 0.0 in
14:34 25.6 °F 15.9 °F 1012.8 in South 15.8 mph 15.8 mph 55 % 0.0 in
14:39 25.8 °F 15.8 °F 1012.8 in SE 19.0 mph 19.0 mph 54 % 0.0 in
14:44 26.1 °F 16.3 °F 1012.8 in East 18.5 mph 18.5 mph 55 % 0.0 in
14:49 26.1 °F 15.8 °F 1012.8 in ENE 18.5 mph 18.5 mph 53 % 0.0 in
14:54 26.0 °F 15.7 °F 1012.8 in ESE 13.0 mph 13.0 mph 53 % 0.0 in
14:59 26.0 °F 15.7 °F 1012.8 in ENE 16.1 mph 16.1 mph 53 % 0.0 in
15:04 26.0 °F 15.7 °F 1012.8 in East 23.3 mph 23.3 mph 53 % 0.0 in
15:09 25.9 °F 15.6 °F 1012.8 in ENE 16.7 mph 16.7 mph 53 % 0.0 in
15:14 25.6 °F 15.9 °F 1012.8 in ENE 18.5 mph 18.5 mph 55 % 0.0 in
15:19 25.4 °F 16.0 °F 1012.8 in NNE 13.0 mph 13.0 mph 56 % 0.0 in
15:24 25.6 °F 16.2 °F 1012.8 in ENE 13.0 mph 13.0 mph 56 % 0.0 in
15:29 25.7 °F 16.3 °F 1012.8 in East 16.7 mph 16.7 mph 56 % 0.0 in
15:34 25.9 °F 16.4 °F 1012.8 in ESE 18.5 mph 18.5 mph 56 % 0.0 in
15:39 26.0 °F 16.6 °F 1011.7 in East 16.7 mph 16.7 mph 56 % 0.0 in
15:44 26.2 °F 16.7 °F 1011.7 in SE 27.0 mph 27.0 mph 56 % 0.0 in
15:49 26.1 °F 16.6 °F 1011.7 in ESE 17.2 mph 17.2 mph 56 % 0.0 in
15:54 26.1 °F 16.6 °F 1011.7 in ENE 22.2 mph 22.2 mph 56 % 0.0 in
15:59 26.6 °F 17.1 °F 1011.7 in SE 13.0 mph 13.0 mph 56 % 0.0 in
16:04 26.9 °F 17.4 °F 1011.7 in ESE 18.5 mph 18.5 mph 56 % 0.0 in
16:09 27.0 °F 17.2 °F 1011.7 in East 24.1 mph 24.1 mph 55 % 0.0 in
16:14 26.9 °F 17.4 °F 1011.7 in East 19.8 mph 19.8 mph 56 % 0.0 in
16:19 27.0 °F 17.2 °F 1011.7 in ENE 14.8 mph 14.8 mph 55 % 0.0 in
16:24 26.6 °F 17.4 °F 1011.7 in East 20.4 mph 20.4 mph 57 % 0.0 in
16:29 26.7 °F 17.5 °F 1011.7 in East 20.4 mph 20.4 mph 57 % 0.0 in
16:34 26.7 °F 17.5 °F 1011.7 in SE 22.2 mph 22.2 mph 57 % 0.0 in
16:39 26.7 °F 17.5 °F 1011.7 in East 22.2 mph 22.2 mph 57 % 0.0 in
16:44 26.6 °F 17.4 °F 1011.7 in ESE 24.1 mph 24.1 mph 57 % 0.0 in
16:49 26.8 °F 17.8 °F 1011.7 in ESE 20.4 mph 20.4 mph 58 % 0.0 in
16:54 26.6 °F 17.4 °F 1011.7 in ESE 22.0 mph 22.0 mph 57 % 0.0 in
16:59 26.6 °F 17.7 °F 1011.7 in ESE 22.5 mph 22.5 mph 58 % 0.0 in
17:04 26.8 °F 17.6 °F 1011.7 in ENE 14.8 mph 14.8 mph 57 % 0.0 in
17:09 26.8 °F 17.6 °F 1011.7 in ENE 13.0 mph 13.0 mph 57 % 0.0 in
17:14 26.9 °F 17.7 °F 1011.7 in ESE 16.7 mph 16.7 mph 57 % 0.0 in
17:19 27.1 °F 17.3 °F 1011.7 in East 20.1 mph 20.1 mph 55 % 0.0 in
17:24 27.2 °F 17.4 °F 1011.7 in ESE 20.4 mph 20.4 mph 55 % 0.0 in
17:29 27.1 °F 17.3 °F 1011.7 in East 18.5 mph 18.5 mph 55 % 0.0 in
17:34 27.4 °F 17.6 °F 1011.7 in ESE 14.8 mph 14.8 mph 55 % 0.0 in
17:39 27.3 °F 16.9 °F 1010.7 in East 18.5 mph 18.5 mph 53 % 0.0 in
17:44 27.4 °F 17.0 °F 1010.7 in NE 20.4 mph 20.4 mph 53 % 0.0 in
17:49 27.3 °F 16.9 °F 1010.7 in ENE 16.7 mph 16.7 mph 53 % 0.0 in
17:54 27.4 °F 17.0 °F 1010.7 in ENE 14.8 mph 14.8 mph 53 % 0.0 in
17:59 27.3 °F 17.2 °F 1010.7 in ENE 14.8 mph 14.8 mph 54 % 0.0 in
18:04 27.5 °F 17.4 °F 1010.7 in NE 13.0 mph 13.0 mph 54 % 0.0 in
18:09 27.6 °F 17.2 °F 1010.0 in East 16.7 mph 16.7 mph 53 % 0.0 in
18:14 27.7 °F 17.3 °F 1010.0 in SE 14.0 mph 14.0 mph 53 % 0.0 in
18:15 27.7 °F 17.3 °F 1010.0 in ESE 16.7 mph 16.7 mph 53 % 0.0 in
18:20 27.4 °F 17.0 °F 1010.0 in ENE 9.3 mph 9.3 mph 53 % 0.0 in
18:25 27.5 °F 17.1 °F 1010.7 in ESE 14.8 mph 14.8 mph 53 % 0.0 in
18:28 27.6 °F 17.2 °F 1010.7 in ESE 11.1 mph 11.1 mph 53 % 0.0 in
18:33 27.5 °F 17.1 °F 1010.7 in ESE 16.7 mph 16.7 mph 53 % 0.0 in
18:38 27.5 °F 17.1 °F 1010.7 in ESE 14.8 mph 14.8 mph 53 % 0.0 in
18:43 27.4 °F 17.3 °F 1010.7 in ESE 11.1 mph 11.1 mph 54 % 0.0 in
18:48 27.6 °F 17.4 °F 1010.7 in ESE 11.1 mph 11.1 mph 54 % 0.0 in
18:53 27.5 °F 17.4 °F 1010.7 in ESE 13.0 mph 13.0 mph 54 % 0.0 in
18:58 27.5 °F 17.4 °F 1010.7 in East 9.3 mph 10.3 mph 54 % 0.0 in
19:03 27.6 °F 17.4 °F 1010.7 in ESE 11.1 mph 11.1 mph 54 % 0.0 in
19:08 27.4 °F 17.0 °F 1010.7 in ENE 7.4 mph 7.4 mph 53 % 0.0 in
19:13 27.4 °F 17.3 °F 1010.0 in ESE 9.3 mph 9.5 mph 54 % 0.0 in
19:18 27.3 °F 17.2 °F 1010.0 in NE 13.0 mph 13.0 mph 54 % 0.0 in
19:23 27.2 °F 17.4 °F 1010.0 in ESE 12.2 mph 12.2 mph 55 % 0.0 in
19:28 27.0 °F 17.5 °F 1010.0 in ESE 13.0 mph 13.0 mph 56 % 0.0 in
19:33 27.0 °F 17.8 °F 1010.0 in SSE 11.1 mph 11.1 mph 57 % 0.0 in
19:38 26.9 °F 17.9 °F 1010.0 in ESE 11.1 mph 11.1 mph 58 % 0.0 in
19:40 22.6 °F 18.4 °F 1011.7 in WNW 1.6 mph 3.2 mph 77 % 0.0 in
19:43 26.9 °F 17.9 °F 1010.0 in ESE 14.8 mph 14.8 mph 58 % 0.0 in
19:48 26.8 °F 17.8 °F 1010.0 in SE 7.9 mph 7.9 mph 58 % 0.0 in
19:50 22.6 °F 18.4 °F 1010.7 in NE 1.6 mph 1.6 mph 77 % 0.0 in
19:53 26.6 °F 17.7 °F 1010.0 in ESE 7.4 mph 7.4 mph 58 % 0.0 in
19:58 26.5 °F 17.8 °F 1010.0 in ESE 9.3 mph 9.3 mph 59 % 0.0 in
20:00 22.5 °F 18.3 °F 1010.7 in Calm   1.6 mph 77 % 0.0 in
20:03 26.3 °F 17.7 °F 1010.0 in ESE 9.3 mph 9.3 mph 59 % 0.0 in
20:08 26.2 °F 17.8 °F 1010.0 in ESE 7.4 mph 7.4 mph 60 % 0.0 in
20:10 22.5 °F 18.3 °F 1010.7 in Calm   1.6 mph 77 % 0.0 in
20:13 26.0 °F 17.6 °F 1010.0 in ESE 11.1 mph 11.1 mph 60 % 0.0 in
20:18 25.9 °F 17.6 °F 1010.0 in East 7.4 mph 7.4 mph 60 % 0.0 in
20:20 22.5 °F 18.4 °F 1010.7 in NNE 1.6 mph 1.6 mph 78 % 0.0 in
20:23 25.8 °F 17.7 °F 1010.0 in ESE 10.3 mph 10.3 mph 61 % 0.0 in
20:28 25.5 °F 17.7 °F 1010.0 in ENE 11.1 mph 11.1 mph 62 % 0.0 in
20:30 22.4 °F 18.4 °F 1010.7 in Calm   3.2 mph 78 % 0.0 in
20:33 25.4 °F 17.6 °F 1010.0 in ENE 14.8 mph 14.8 mph 62 % 0.0 in
20:38 25.3 °F 17.7 °F 1010.0 in East 9.3 mph 9.3 mph 63 % 0.0 in
20:40 22.3 °F 18.3 °F 1010.7 in Calm   1.6 mph 78 % 0.0 in
20:43 25.1 °F 17.8 °F 1010.0 in ESE 13.0 mph 13.0 mph 64 % 0.0 in
20:48 25.0 °F 17.7 °F 1010.0 in ESE 13.7 mph 13.7 mph 64 % 0.0 in
20:50 22.2 °F 18.2 °F 1010.7 in Calm     78 % 0.0 in
20:53 24.8 °F 18.3 °F 1010.0 in ESE 13.0 mph 13.0 mph 67 % 0.0 in
20:58 24.7 °F 18.2 °F 1010.0 in ESE 9.3 mph 9.3 mph 67 % 0.0 in
21:00 22.2 °F 18.2 °F 1010.7 in Calm   1.6 mph 78 % 0.0 in
21:03 24.7 °F 18.2 °F 1010.0 in ESE 7.4 mph 7.4 mph 67 % 0.0 in
21:08 24.6 °F 18.3 °F 1010.0 in ENE 11.1 mph 11.1 mph 68 % 0.0 in
21:10 22.1 °F 18.1 °F 1010.7 in WNW 1.6 mph 1.6 mph 78 % 0.0 in
21:13 24.5 °F 18.2 °F 1010.0 in SE 6.4 mph 6.4 mph 68 % 0.0 in
21:18 24.4 °F 18.1 °F 1010.0 in ESE 7.4 mph 7.4 mph 68 % 0.0 in
21:20 21.9 °F 18.1 °F 1010.7 in Calm   3.2 mph 79 % 0.0 in
21:23 24.3 °F 18.2 °F 1010.0 in ESE 10.0 mph 10.0 mph 69 % 0.0 in
21:28 24.3 °F 18.5 °F 1009.0 in East 11.1 mph 11.1 mph 70 % 0.0 in
21:30 22.0 °F 18.2 °F 1010.7 in Calm   3.2 mph 79 % 0.0 in
21:33 24.2 °F 18.4 °F 1009.0 in ENE 11.1 mph 11.1 mph 70 % 0.0 in
21:38 24.1 °F 18.3 °F 1009.0 in ENE 7.4 mph 7.4 mph 70 % 0.0 in
21:40 21.8 °F 17.6 °F 1010.7 in SE 1.6 mph 3.2 mph 77 % 0.0 in
21:43 24.1 °F 18.3 °F 1010.0 in East 9.0 mph 9.0 mph 70 % 0.0 in
21:48 24.0 °F 18.2 °F 1010.0 in ESE 9.3 mph 9.3 mph 70 % 0.0 in
21:50 21.8 °F 17.6 °F 1010.0 in SW 1.6 mph 3.2 mph 77 % 0.0 in
21:53 24.0 °F 18.4 °F 1010.0 in ESE 7.4 mph 7.4 mph 71 % 0.0 in
21:58 23.9 °F 18.6 °F 1010.0 in NNE 5.6 mph 5.6 mph 72 % 0.0 in
22:00 21.7 °F 17.1 °F 1010.0 in WSW 4.8 mph 4.8 mph 75 % 0.0 in
22:03 23.9 °F 18.3 °F 1010.0 in ENE 3.7 mph 3.7 mph 71 % 0.0 in
22:08 23.8 °F 18.4 °F 1010.0 in North 3.7 mph 3.7 mph 72 % 0.0 in
22:10 21.6 °F 17.0 °F 1010.0 in WSW 1.6 mph 3.2 mph 75 % 0.0 in
22:13 23.7 °F 18.3 °F 1010.7 in NE 3.7 mph 3.7 mph 72 % 0.0 in
22:18 23.6 °F 18.3 °F 1010.7 in East 5.6 mph 5.6 mph 72 % 0.0 in
22:20 21.5 °F 16.4 °F 1010.0 in Calm   1.6 mph 73 % 0.0 in
22:23 23.6 °F 18.3 °F 1010.7 in East 5.6 mph 5.6 mph 72 % 0.0 in
22:28 23.6 °F 18.3 °F 1010.7 in ENE 3.7 mph 3.7 mph 72 % 0.0 in
22:30 21.6 °F 16.3 °F 1010.0 in Calm   3.2 mph 72 % 0.0 in
22:33 23.5 °F 18.2 °F 1010.7 in ENE 5.6 mph 5.6 mph 72 % 0.0 in
22:38 23.5 °F 18.4 °F 1010.7 in ENE 3.9 mph 3.9 mph 73 % 0.0 in
22:40 21.4 °F 16.2 °F 1010.0 in Calm   1.6 mph 72 % 0.0 in
22:43 23.5 °F 18.4 °F 1011.7 in ESE 3.9 mph 3.9 mph 73 % 0.0 in
22:48 23.5 °F 18.6 °F 1011.7 in East 7.4 mph 7.4 mph 74 % 0.0 in
22:50 21.0 °F 15.8 °F 1010.0 in WSW 1.6 mph 3.2 mph 72 % 0.0 in
22:53 23.5 °F 18.6 °F 1011.7 in SE 5.0 mph 5.0 mph 74 % 0.0 in
22:58 23.4 °F 18.5 °F 1011.7 in SE 3.7 mph 3.7 mph 74 % 0.0 in
23:00 20.8 °F 15.6 °F 1010.0 in Calm   3.2 mph 72 % 0.0 in
23:03 23.4 °F 18.5 °F 1011.7 in ENE 5.0 mph 5.0 mph 74 % 0.0 in
23:08 23.4 °F 18.7 °F 1011.7 in East 3.9 mph 3.9 mph 75 % 0.0 in
23:10 20.8 °F 15.6 °F 1010.0 in SW 3.2 mph 3.2 mph 72 % 0.0 in
23:13 23.3 °F 18.4 °F 1011.7 in SE 3.7 mph 3.7 mph 74 % 0.0 in
23:18 23.2 °F 18.3 °F 1011.7 in ENE 1.9 mph 1.9 mph 74 % 0.0 in
23:20 20.7 °F 15.4 °F 1010.0 in WSW 3.2 mph 6.4 mph 72 % 0.0 in
23:23 23.1 °F 18.2 °F 1011.7 in SW 3.7 mph 3.7 mph 74 % 0.0 in
23:28 23.0 °F 18.1 °F 1011.7 in SW 2.3 mph 2.3 mph 74 % 0.0 in
23:30 20.7 °F 15.4 °F 1010.0 in WSW 1.6 mph 4.8 mph 72 % 0.0 in
23:33 22.8 °F 18.1 °F 1011.7 in SW 3.7 mph 3.7 mph 75 % 0.0 in
23:38 22.8 °F 18.1 °F 1011.7 in Calm     75 % 0.0 in
23:40 20.5 °F 15.3 °F 1010.0 in SW 1.6 mph 3.2 mph 72 % 0.0 in
23:43 22.8 °F 18.1 °F 1011.7 in Calm     75 % 0.0 in
23:48 22.8 °F 18.1 °F 1011.7 in SW 3.7 mph 3.7 mph 75 % 0.0 in
23:50 20.3 °F 15.1 °F 1009.0 in SW 3.2 mph 3.2 mph 72 % 0.0 in
23:53 22.7 °F 18.1 °F 1011.7 in SW 3.7 mph 3.7 mph 75 % 0.0 in
23:58 22.6 °F 17.9 °F 1011.7 in WSW 3.7 mph 3.7 mph 75 % 0.0 in
Meteo Sesrovires
Elogis d' Weather Underground - 1.5 mb

Guio original per  Jim McMurry - jmcmurry@mwt.net Adaptat per a la plantilla per  Wim van der Kuil - Leuven-Template.eu

Trobareu la nostra informacio del temps tambe a:

Weather Underground

AWEKAS